Time;durP1;ratioP1;P1;durP2;ratioP2;P2;SDS_P1;SDS_P2;PMS_P1;PMS_P2;Temp;Humidity;BMP_temperature;BMP_pressure;BME280_temperature;BME280_humidity;BME280_pressure;Samples;Min_cycle;Max_cycle;Signal;HPM_P1;HPM_P2
2022/09/24 00:03:09;;;;;;;1.75;1.52;;;;;;;12.32;100.00;101729.88;10421127;28;20076;-76
2022/09/24 00:08:12;;;;;;;2.92;1.40;;;;;;;12.37;100.00;101723.16;10423746;28;20045;-76
2022/09/24 00:13:16;;;;;;;1.77;1.48;;;;;;;12.33;100.00;101721.28;10420297;28;20092;-76
2022/09/24 00:18:20;;;;;;;2.45;1.77;;;;;;;12.33;100.00;101705.78;10418367;28;20044;-76
2022/09/24 00:23:22;;;;;;;0.75;0.38;;;;;;;12.40;100.00;101706.00;10418560;28;20041;-77
2022/09/24 00:28:24;;;;;;;0.00;0.00;;;;;;;12.32;100.00;101693.69;10417984;28;20068;-76
2022/09/24 00:33:27;;;;;;;0.28;0.15;;;;;;;12.29;100.00;101698.78;10415835;28;20111;-76
2022/09/24 00:38:32;;;;;;;0.82;0.77;;;;;;;12.29;100.00;101700.47;10399669;28;20056;-75
2022/09/24 00:43:36;;;;;;;1.33;0.55;;;;;;;12.29;100.00;101708.22;10418335;28;20080;-76
2022/09/24 00:48:39;;;;;;;0.20;0.20;;;;;;;12.31;100.00;101706.56;10418728;28;20065;-76
2022/09/24 00:53:42;;;;;;;0.05;0.05;;;;;;;12.28;100.00;101707.34;10417545;28;20089;-76
2022/09/24 00:58:51;;;;;;;0.00;0.00;;;;;;;12.29;100.00;101710.81;10418462;28;20129;-76
2022/09/24 01:03:55;;;;;;;0.17;0.17;;;;;;;12.21;100.00;101705.41;10418998;28;20053;-76
2022/09/24 01:08:58;;;;;;;1.27;0.93;;;;;;;12.25;100.00;101701.22;10417482;28;20140;-76
2022/09/24 01:14:21;;;;;;;0.60;0.32;;;;;;;12.21;100.00;101705.41;10418548;28;20445;-76
2022/09/24 01:20:00;;;;;;;0.00;0.00;;;;;;;12.25;100.00;101702.09;10408083;28;20069;-76
2022/09/24 01:25:25;;;;;;;0.05;0.05;;;;;;;12.10;100.00;101691.28;10408282;28;20045;-77
2022/09/24 01:30:31;;;;;;;0.22;0.22;;;;;;;12.11;100.00;101698.19;10416050;28;20049;-77
2022/09/24 01:35:43;;;;;;;0.30;0.30;;;;;;;12.08;100.00;101698.09;10407529;28;20053;-77
2022/09/24 01:40:47;;;;;;;0.22;0.22;;;;;;;12.06;100.00;101711.84;10398717;28;20107;-77
2022/09/24 01:45:50;;;;;;;0.08;0.08;;;;;;;12.05;100.00;101717.81;10416524;28;20055;-76
2022/09/24 01:51:08;;;;;;;1.25;0.47;;;;;;;12.09;100.00;101716.22;10399747;28;20087;-76
2022/09/24 01:56:37;;;;;;;0.20;0.20;;;;;;;12.06;100.00;101711.84;10415631;28;20045;-76
2022/09/24 02:02:00;;;;;;;0.60;0.60;;;;;;;12.03;100.00;101711.72;10416388;28;20107;-76
2022/09/24 02:07:12;;;;;;;0.13;0.13;;;;;;;12.00;100.00;101710.75;10416754;28;20128;-77
2022/09/24 02:12:25;;;;;;;0.10;0.10;;;;;;;12.05;100.00;101707.50;10414634;28;20041;-77
2022/09/24 02:17:31;;;;;;;0.43;0.13;;;;;;;11.99;100.00;101709.88;10415833;28;20132;-77
2022/09/24 02:22:34;;;;;;;1.30;1.20;;;;;;;11.99;100.00;101699.56;10415999;28;20063;-77
2022/09/24 02:27:35;;;;;;;0.00;0.00;;;;;;;11.96;100.00;101711.44;10397778;28;20049;-77
2022/09/24 02:32:40;;;;;;;0.00;0.00;;;;;;;11.92;100.00;101702.72;10414307;28;20042;-77
2022/09/24 02:37:43;;;;;;;0.75;0.38;;;;;;;11.94;100.00;101701.09;10414354;28;20394;-77
2022/09/24 02:42:45;;;;;;;0.52;0.52;;;;;;;11.92;100.00;101697.56;10397436;28;20153;-77
2022/09/24 02:47:46;;;;;;;0.47;0.47;;;;;;;11.83;100.00;101699.81;10414239;28;20473;-78
2022/09/24 02:52:51;;;;;;;0.47;0.47;;;;;;;11.91;100.00;101695.81;10409793;28;20103;-78
2022/09/24 02:57:53;;;;;;;0.30;0.30;;;;;;;11.84;100.00;101699.00;10396249;28;20308;-77
2022/09/24 03:02:55;;;;;;;0.00;0.00;;;;;;;11.91;100.00;101696.66;10398723;28;20084;-78
2022/09/24 03:07:57;;;;;;;0.30;0.28;;;;;;;11.87;100.00;101697.41;10398837;28;20037;-78
2022/09/24 03:12:59;;;;;;;0.52;0.20;;;;;;;11.91;100.00;101703.56;10413313;28;20122;-78
2022/09/24 03:18:06;;;;;;;0.32;0.32;;;;;;;11.97;100.00;101696.03;10412273;28;20068;-78
2022/09/24 03:23:08;;;;;;;0.00;0.00;;;;;;;11.92;100.00;101692.41;10413811;28;20405;-78
2022/09/24 03:28:10;;;;;;;0.00;0.00;;;;;;;11.91;100.00;101688.06;10411765;28;20555;-78
2022/09/24 03:33:12;;;;;;;0.55;0.55;;;;;;;11.98;100.00;101689.19;10409753;28;20136;-78
2022/09/24 03:38:14;;;;;;;0.00;0.00;;;;;;;11.97;100.00;101685.69;10415861;28;20052;-78
2022/09/24 03:43:15;;;;;;;3.10;0.75;;;;;;;11.93;100.00;101672.59;10412694;28;20069;-78
2022/09/24 03:48:19;;;;;;;0.10;0.10;;;;;;;11.98;100.00;101677.13;10412898;28;20099;-78
2022/09/24 03:53:21;;;;;;;0.20;0.20;;;;;;;11.99;100.00;101663.41;10438809;28;20056;-78
2022/09/24 03:58:23;;;;;;;1.02;0.85;;;;;;;12.03;100.00;101665.22;10431019;28;20041;-77
2022/09/24 04:03:24;;;;;;;0.77;0.77;;;;;;;12.02;100.00;101654.88;10411082;28;20132;-78
2022/09/24 04:08:26;;;;;;;1.65;1.20;;;;;;;12.02;100.00;101649.69;10395188;28;20049;-79
2022/09/24 04:13:28;;;;;;;0.20;0.20;;;;;;;11.96;100.00;101647.75;10411171;28;20073;-78
2022/09/24 04:18:30;;;;;;;0.30;0.30;;;;;;;12.01;100.00;101646.25;10410335;28;20136;-79
2022/09/24 04:23:37;;;;;;;0.40;0.40;;;;;;;11.99;100.00;101640.16;10412070;28;20530;-78
2022/09/24 04:28:39;;;;;;;0.90;0.68;;;;;;;11.95;100.00;101632.22;10376969;28;20041;-77
2022/09/24 04:33:40;;;;;;;1.83;1.15;;;;;;;11.99;100.00;101622.06;10402354;28;20069;-78
2022/09/24 04:38:42;;;;;;;0.47;0.40;;;;;;;12.07;100.00;101635.22;10415476;28;20099;-77
2022/09/24 04:43:45;;;;;;;0.45;0.43;;;;;;;12.04;100.00;101632.56;10398633;28;20128;-78
2022/09/24 04:48:47;;;;;;;0.30;0.30;;;;;;;12.03;100.00;101626.50;10401238;28;20045;-77
2022/09/24 04:53:49;;;;;;;0.98;0.75;;;;;;;11.94;100.00;101627.88;10418090;28;20051;-78
2022/09/24 04:58:51;;;;;;;0.38;0.13;;;;;;;11.91;100.00;101623.50;10413672;28;20045;-78
2022/09/24 05:03:53;;;;;;;1.00;0.90;;;;;;;11.92;100.00;101630.44;10416315;28;20080;-77
2022/09/24 05:08:54;;;;;;;1.15;0.73;;;;;;;11.90;100.00;101632.97;10416082;28;20077;-78
2022/09/24 05:14:02;;;;;;;1.65;0.45;;;;;;;11.93;100.00;101632.19;10416116;28;20072;-78
2022/09/24 05:19:03;;;;;;;1.02;0.70;;;;;;;11.83;100.00;101624.97;10416181;28;20072;-78
2022/09/24 05:24:05;;;;;;;0.73;0.50;;;;;;;11.80;100.00;101630.03;10417816;28;20052;-78
2022/09/24 05:29:07;;;;;;;1.92;1.42;;;;;;;11.83;100.00;101630.13;10399883;28;20049;-77
2022/09/24 05:34:10;;;;;;;1.98;1.10;;;;;;;11.86;100.00;101632.81;10430941;28;20056;-77
2022/09/24 05:39:12;;;;;;;3.05;1.00;;;;;;;11.88;100.00;101631.13;10449261;28;20076;-76
2022/09/24 05:44:13;;;;;;;0.50;0.50;;;;;;;11.87;100.00;101643.19;10420022;28;20048;-76
2022/09/24 05:49:15;;;;;;;0.68;0.63;;;;;;;11.96;100.00;101645.16;10417388;28;20548;-76
2022/09/24 05:54:18;;;;;;;1.33;0.68;;;;;;;11.93;100.00;101639.94;10411823;28;20058;-76
2022/09/24 05:59:19;;;;;;;0.73;0.30;;;;;;;11.99;100.00;101642.75;10430108;28;20034;-76
2022/09/24 06:04:21;;;;;;;0.52;0.52;;;;;;;11.98;100.00;101646.16;10426928;28;20060;-77
2022/09/24 06:09:22;;;;;;;0.60;0.45;;;;;;;12.00;100.00;101641.91;10412811;28;20088;-76
2022/09/24 06:14:24;;;;;;;1.95;1.15;;;;;;;12.04;100.00;101648.91;10437241;28;20049;-76
2022/09/24 06:19:25;;;;;;;2.53;1.40;;;;;;;12.13;100.00;101650.03;10454149;28;20048;-76
2022/09/24 06:24:27;;;;;;;1.48;0.55;;;;;;;12.13;100.00;101650.03;10421621;28;20054;-77
2022/09/24 06:29:28;;;;;;;5.20;1.58;;;;;;;12.17;100.00;101646.75;10398454;28;20048;-75
2022/09/24 06:34:30;;;;;;;1.33;0.93;;;;;;;12.20;100.00;101644.22;10429368;28;20461;-75
2022/09/24 06:39:31;;;;;;;1.25;0.90;;;;;;;12.27;100.00;101643.59;10409243;28;20045;-76
2022/09/24 06:44:34;;;;;;;0.65;0.40;;;;;;;12.34;100.00;101642.94;10400001;28;20053;-75
2022/09/24 06:49:36;;;;;;;5.07;1.17;;;;;;;12.41;100.00;101645.72;10408800;28;20085;-75
2022/09/24 06:54:37;;;;;;;2.97;1.67;;;;;;;12.44;100.00;101645.81;10404473;28;20445;-75
2022/09/24 06:59:39;;;;;;;2.45;1.63;;;;;;;12.35;100.00;101642.13;10408348;28;20121;-75
2022/09/24 07:04:40;;;;;;;2.30;1.58;;;;;;;12.42;100.00;101639.72;10389959;28;20049;-75
2022/09/24 07:09:42;;;;;;;2.83;1.88;;;;;;;12.45;100.00;101642.41;10401792;28;20551;-75
2022/09/24 07:14:43;;;;;;;2.10;1.25;;;;;;;12.53;100.00;101636.63;10397551;28;20053;-75
2022/09/24 07:19:45;;;;;;;1.77;1.58;;;;;;;12.45;100.00;101632.06;10412730;28;20077;-76
2022/09/24 07:24:47;;;;;;;1.00;0.80;;;;;;;12.54;100.00;101627.19;10401318;28;20136;-75
2022/09/24 07:29:50;;;;;;;4.22;1.38;;;;;;;12.62;100.00;101630.84;10427993;28;20033;-76
2022/09/24 07:34:53;;;;;;;2.63;1.27;;;;;;;12.59;100.00;101623.00;10442911;28;20041;-75
2022/09/24 07:39:54;;;;;;;3.53;1.50;;;;;;;12.63;100.00;101631.72;10424451;28;20132;-76
2022/09/24 07:44:56;;;;;;;1.60;1.10;;;;;;;12.55;100.00;101631.50;10438177;28;20052;-76
2022/09/24 07:50:00;;;;;;;1.00;0.80;;;;;;;12.55;100.00;101626.31;10401147;28;20045;-75
2022/09/24 07:55:07;;;;;;;1.60;1.23;;;;;;;12.64;100.00;101621.44;10386087;28;20145;-75
2022/09/24 08:00:11;;;;;;;1.17;0.68;;;;;;;12.62;100.00;101622.22;10385683;28;20128;-76
2022/09/24 08:05:15;;;;;;;0.90;0.85;;;;;;;12.44;100.00;101628.59;10398876;28;20577;-76
2022/09/24 08:10:18;;;;;;;0.77;0.77;;;;;;;12.43;100.00;101623.38;10403676;28;20053;-75
2022/09/24 08:15:21;;;;;;;1.50;1.08;;;;;;;12.54;100.00;101616.84;10386142;28;20050;-76
2022/09/24 08:20:23;;;;;;;1.33;0.70;;;;;;;12.56;100.00;101614.28;10409661;28;20042;-75
2022/09/24 08:25:25;;;;;;;0.65;0.57;;;;;;;12.66;100.00;101621.47;10410162;28;20080;-75
2022/09/24 08:30:26;;;;;;;0.65;0.65;;;;;;;12.49;100.00;101619.28;10385550;28;20501;-76
2022/09/24 08:35:28;;;;;;;6.00;1.30;;;;;;;12.52;100.00;101628.84;10407551;28;20065;-76
2022/09/24 08:40:35;;;;;;;1.85;0.88;;;;;;;12.27;100.00;101632.41;10408275;28;20053;-76
2022/09/24 08:51:11;;;;;;;0.60;0.60;;;;;;;12.62;100.00;101646.34;10417734;28;20103;-76
2022/09/24 08:56:16;;;;;;;0.88;0.75;;;;;;;12.70;100.00;101654.34;10419299;28;20103;-76
2022/09/24 09:02:00;;;;;;;1.80;1.15;;;;;;;12.85;100.00;101666.81;10409204;28;20084;-76
2022/09/24 09:07:08;;;;;;;0.40;0.40;;;;;;;12.59;100.00;101668.66;10430462;28;20057;-77
2022/09/24 09:12:18;;;;;;;0.00;0.00;;;;;;;12.78;100.00;101677.81;10420420;28;20044;-77
2022/09/24 09:17:41;;;;;;;0.00;0.00;;;;;;;12.78;100.00;101688.16;10423953;28;20041;-77
2022/09/24 09:22:47;;;;;;;0.00;0.00;;;;;;;12.67;100.00;101686.16;10418944;28;20049;-78
2022/09/24 09:28:14;;;;;;;0.03;0.03;;;;;;;12.64;100.00;101698.97;10415633;28;20548;-77
2022/09/24 09:33:40;;;;;;;0.03;0.03;;;;;;;12.75;100.00;101716.53;10421281;28;20061;-76
2022/09/24 09:39:05;;;;;;;0.30;0.30;;;;;;;12.79;100.00;101726.13;10418047;28;20036;-77
2022/09/24 09:44:21;;;;;;;0.40;0.30;;;;;;;12.88;100.00;101722.97;10416479;28;20132;-77
2022/09/24 09:49:26;;;;;;;1.00;0.17;;;;;;;12.89;100.00;101730.75;10417928;28;20061;-77
2022/09/24 09:54:36;;;;;;;0.03;0.03;;;;;;;12.78;100.00;101733.03;10432017;28;20250;-78
2022/09/24 09:59:39;;;;;;;0.20;0.20;;;;;;;12.70;100.00;101732.78;10416017;28;20064;-77
2022/09/24 10:04:41;;;;;;;0.35;0.32;;;;;;;12.47;100.00;101739.81;10414767;28;20068;-77
2022/09/24 10:09:44;;;;;;;1.08;0.60;;;;;;;12.64;100.00;101731.72;10417191;28;20106;-77
2022/09/24 10:15:03;;;;;;;0.88;0.50;;;;;;;12.74;100.00;101725.13;10399663;28;20053;-76
2022/09/24 10:20:14;;;;;;;0.70;0.50;;;;;;;12.81;100.00;101730.50;10418012;28;20041;-75
2022/09/24 10:25:19;;;;;;;0.20;0.17;;;;;;;12.82;100.00;101718.47;10416304;28;20060;-77
2022/09/24 10:30:32;;;;;;;0.57;0.45;;;;;;;12.86;100.00;101712.56;10416374;28;20072;-76
2022/09/24 10:35:45;;;;;;;0.28;0.28;;;;;;;12.90;100.00;101718.69;10406856;28;20050;-76
2022/09/24 10:40:47;;;;;;;0.70;0.70;;;;;;;12.96;100.00;101713.69;10419882;28;20045;-76
2022/09/24 10:46:08;;;;;;;0.52;0.45;;;;;;;13.08;100.00;101720.94;10417021;28;20445;-75
2022/09/24 10:51:39;;;;;;;0.65;0.57;;;;;;;13.08;100.00;101710.59;10429566;28;20091;-76
2022/09/24 10:56:52;;;;;;;0.65;0.55;;;;;;;13.02;100.00;101709.59;10415664;28;20057;-76
2022/09/24 11:02:12;;;;;;;0.60;0.50;;;;;;;13.35;100.00;101713.06;10397805;28;20083;-76
2022/09/24 11:07:34;;;;;;;0.70;0.68;;;;;;;13.44;100.00;101707.31;10415602;28;20045;-76
2022/09/24 11:12:55;;;;;;;0.38;0.32;;;;;;;13.20;100.00;101708.38;10402612;28;20513;-76
2022/09/24 11:18:28;;;;;;;2.17;1.38;;;;;;;13.29;100.00;101703.41;10415517;28;20120;-76
2022/09/24 11:24:00;;;;;;;0.98;0.80;;;;;;;13.36;100.00;101698.44;10415927;28;20463;-76
2022/09/24 11:29:25;;;;;;;2.40;1.83;;;;;;;13.37;100.00;101694.97;10439054;28;20473;-76
2022/09/24 11:34:41;;;;;;;2.20;1.35;;;;;;;13.44;100.00;101694.38;10416676;28;20449;-76
2022/09/24 11:40:11;;;;;;;5.28;1.67;;;;;;;13.56;100.00;101692.09;10374975;28;20549;-76
2022/09/24 11:45:29;;;;;;;0.43;0.43;;;;;;;13.50;100.00;101681.59;10405128;28;20052;-76
2022/09/24 11:50:49;;;;;;;0.15;0.00;;;;;;;13.61;100.00;101669.78;10434839;28;20572;-77
2022/09/24 11:55:57;;;;;;;;;;;;;;;13.46;100.00;101648.69;10415929;28;20049;-76
2022/09/24 12:01:09;;;;;;;0.00;0.00;;;;;;;13.46;100.00;101636.63;10415332;28;19932;-76
2022/09/24 12:06:19;;;;;;;0.00;0.00;;;;;;;13.41;100.00;101616.63;10414989;28;20403;-76
2022/09/24 12:11:32;;;;;;;0.00;0.00;;;;;;;13.48;100.00;101600.41;10397274;28;20064;-76
2022/09/24 12:16:36;;;;;;;0.00;0.00;;;;;;;13.48;100.00;101595.25;10414281;28;20128;-77
2022/09/24 12:21:42;;;;;;;0.05;0.05;;;;;;;13.52;100.00;101594.47;10404163;28;20099;-78
2022/09/24 12:26:47;;;;;;;0.00;0.00;;;;;;;13.35;100.00;101591.44;10417618;28;20041;-77
2022/09/24 12:37:22;;;;;;;0.13;0.13;;;;;;;13.70;100.00;101598.34;10424715;28;20124;-77
2022/09/24 12:42:30;;;;;;;0.10;0.10;;;;;;;13.45;100.00;101601.22;10420722;28;20116;-77
2022/09/24 12:47:39;;;;;;;1.17;0.13;;;;;;;13.64;100.00;101602.56;10414336;28;20076;-77
2022/09/24 12:52:42;;;;;;;0.00;0.00;;;;;;;13.63;100.00;101595.63;10412288;28;20112;-77
2022/09/24 12:57:52;;;;;;;6.10;1.48;;;;;;;13.84;100.00;101602.16;10412914;28;20092;-77
2022/09/24 13:02:54;;;;;;;0.40;0.35;;;;;;;13.90;100.00;101584.16;10414618;28;20072;-77
2022/09/24 13:08:06;;;;;;;0.00;0.00;;;;;;;14.00;100.00;101581.78;10427007;28;20046;-77
2022/09/24 13:13:22;;;;;;;0.57;0.38;;;;;;;14.03;100.00;101576.69;10420581;28;20049;-78
2022/09/24 13:18:23;;;;;;;0.20;0.20;;;;;;;14.03;100.00;101501.56;10418959;28;20041;-78
2022/09/24 13:23:26;;;;;;;0.10;0.05;;;;;;;14.07;100.00;101499.03;10419887;28;20041;-77
2022/09/24 13:28:29;;;;;;;0.22;0.17;;;;;;;14.04;100.00;101498.09;10419200;28;20041;-78
2022/09/24 13:33:44;;;;;;;0.00;0.00;;;;;;;14.06;100.00;101493.81;10403597;28;20053;-78
2022/09/24 13:38:55;;;;;;;0.00;0.00;;;;;;;14.06;100.00;101496.41;10418100;28;20046;-78
2022/09/24 13:44:06;;;;;;;0.00;0.00;;;;;;;14.11;100.00;101494.81;10419653;28;20129;-78
2022/09/24 13:49:15;;;;;;;0.40;0.40;;;;;;;14.13;100.00;101487.94;10432796;28;20083;-78
2022/09/24 13:54:25;;;;;;;0.55;0.35;;;;;;;14.04;100.00;101492.91;10419065;28;20041;-77
2022/09/24 13:59:27;;;;;;;;;;;;;;;14.09;100.00;101501.69;10418315;28;20540;-78
2022/09/24 14:04:29;;;;;;;0.30;0.30;;;;;;;14.13;100.00;101511.25;10400820;28;20358;-78
2022/09/24 14:09:33;;;;;;;0.35;0.17;;;;;;;14.06;100.00;101511.97;10403875;28;20116;-78
2022/09/24 14:14:35;;;;;;;0.73;0.20;;;;;;;13.94;100.00;101522.94;10417369;28;20441;-78
2022/09/24 14:19:36;;;;;;;0.40;0.35;;;;;;;13.82;100.00;101543.38;10398801;28;20132;-76
2022/09/24 14:24:55;;;;;;;0.30;0.30;;;;;;;13.79;100.00;101565.78;10433732;28;20047;-77
2022/09/24 14:30:01;;;;;;;0.20;0.20;;;;;;;13.67;100.00;101574.97;10480482;28;20041;-77
2022/09/24 14:35:09;;;;;;;0.38;0.38;;;;;;;13.52;100.00;101583.25;10483076;28;20041;-77
2022/09/24 14:40:17;;;;;;;0.20;0.20;;;;;;;13.55;100.00;101585.94;10474548;28;20045;-77
2022/09/24 14:45:22;;;;;;;0.10;0.10;;;;;;;13.47;100.00;101596.06;10441651;28;20044;-77
2022/09/24 14:50:31;;;;;;;0.25;0.08;;;;;;;13.54;100.00;101615.25;10457857;28;20055;-77
2022/09/24 14:55:38;;;;;;;0.30;0.30;;;;;;;13.43;100.00;101639.13;10433446;28;20049;-77
2022/09/24 15:00:49;;;;;;;0.00;0.00;;;;;;;13.27;100.00;101697.34;10417023;28;20120;-77
2022/09/24 15:05:51;;;;;;;0.25;0.22;;;;;;;13.26;100.00;101695.59;10376165;28;20046;-78
2022/09/24 15:11:16;;;;;;;0.20;0.00;;;;;;;13.18;100.00;101673.78;10375949;28;20493;-77
2022/09/24 15:16:33;;;;;;;0.00;0.00;;;;;;;13.18;100.00;101653.09;10371621;28;20054;-77
2022/09/24 15:21:38;;;;;;;0.00;0.00;;;;;;;13.05;100.00;101645.84;10422525;28;20044;-77
2022/09/24 15:26:43;;;;;;;0.00;0.00;;;;;;;13.00;100.00;101669.00;10456739;28;20139;-77
2022/09/24 15:31:44;;;;;;;0.38;0.38;;;;;;;13.12;100.00;101695.19;10434936;28;20500;-77
2022/09/24 15:36:47;;;;;;;0.00;0.00;;;;;;;12.96;100.00;101704.25;10414524;28;20145;-77
2022/09/24 15:41:49;;;;;;;0.00;0.00;;;;;;;12.83;100.00;101717.66;10415858;28;20128;-76
2022/09/24 15:46:51;;;;;;;0.77;0.38;;;;;;;12.84;100.00;101737.50;10414125;28;20472;-76
2022/09/24 15:51:58;;;;;;;0.00;0.00;;;;;;;12.75;100.00;101745.84;10419522;28;20492;-77
2022/09/24 15:57:11;;;;;;;0.00;0.00;;;;;;;12.77;100.00;101758.84;10428480;28;20093;-77
2022/09/24 16:02:32;;;;;;;0.00;0.00;;;;;;;12.96;100.00;101771.50;10412616;28;20124;-77
2022/09/24 16:07:34;;;;;;;0.30;0.30;;;;;;;12.81;100.00;101777.06;10403775;28;20050;-77
2022/09/24 16:12:36;;;;;;;0.00;0.00;;;;;;;12.88;100.00;101790.19;10404147;28;20052;-77
2022/09/24 16:17:38;;;;;;;0.00;0.00;;;;;;;12.88;100.00;101806.59;10426750;28;20466;-76
2022/09/24 16:22:40;;;;;;;0.00;0.00;;;;;;;12.79;100.00;101834.72;10403591;28;20054;-77
2022/09/24 16:27:42;;;;;;;0.10;0.10;;;;;;;12.88;100.00;101845.38;10437523;28;20073;-77
2022/09/24 16:32:43;;;;;;;0.00;0.00;;;;;;;12.87;100.00;101848.78;10418392;28;20073;-77
2022/09/24 16:37:45;;;;;;;0.10;0.10;;;;;;;12.95;100.00;101847.31;10438298;28;20072;-77
2022/09/24 16:42:47;;;;;;;0.03;0.03;;;;;;;12.92;100.00;101857.56;10411701;28;20088;-77
2022/09/24 16:47:48;;;;;;;0.03;0.03;;;;;;;13.02;100.00;101859.63;10404411;28;20072;-78
2022/09/24 16:53:03;;;;;;;0.05;0.05;;;;;;;13.00;100.00;101863.84;10428864;28;20049;-77
2022/09/24 16:58:05;;;;;;;0.00;0.00;;;;;;;12.89;100.00;101852.31;10421265;28;20055;-78
2022/09/24 17:03:08;;;;;;;0.52;0.52;;;;;;;12.79;100.00;101843.38;10436142;28;20042;-78
2022/09/24 17:08:10;;;;;;;0.00;0.00;;;;;;;12.69;100.00;101839.63;10419316;28;20168;-78
2022/09/24 17:13:11;;;;;;;0.20;0.10;;;;;;;12.67;100.00;101835.22;10433351;28;20129;-77
2022/09/24 17:18:13;;;;;;;0.00;0.00;;;;;;;12.62;100.00;101834.19;10433518;28;20544;-78
2022/09/24 17:23:14;;;;;;;0.00;0.00;;;;;;;12.58;100.00;101833.22;10434947;28;20049;-77
2022/09/24 17:28:16;;;;;;;0.00;0.00;;;;;;;12.57;100.00;101836.63;10428774;28;20121;-77
2022/09/24 17:33:17;;;;;;;0.00;0.00;;;;;;;12.54;100.00;101837.41;10406728;28;20044;-78
2022/09/24 17:38:39;;;;;;;0.00;0.00;;;;;;;12.56;100.00;101842.63;10420387;28;20051;-78
2022/09/24 17:43:43;;;;;;;0.30;0.30;;;;;;;12.50;100.00;101837.25;10432141;28;20456;-78
2022/09/24 17:48:47;;;;;;;0.15;0.15;;;;;;;12.49;100.00;101835.50;10418624;28;20616;-77
2022/09/24 17:53:51;;;;;;;0.00;0.00;;;;;;;12.45;100.00;101844.00;10401758;28;20069;-77
2022/09/24 17:58:54;;;;;;;0.00;0.00;;;;;;;12.46;100.00;101850.94;10433166;28;20073;-78
2022/09/24 18:03:57;;;;;;;0.00;0.00;;;;;;;12.44;100.00;101852.56;10401448;28;20076;-77
2022/09/24 18:09:00;;;;;;;0.00;0.00;;;;;;;12.40;100.00;101846.41;10432668;28;20041;-77
2022/09/24 18:14:01;;;;;;;0.00;0.00;;;;;;;12.43;100.00;101850.81;10429260;28;20045;-77
2022/09/24 18:19:03;;;;;;;0.00;0.00;;;;;;;12.33;100.00;101859.97;10445061;28;20124;-77
2022/09/24 18:24:05;;;;;;;0.00;0.00;;;;;;;12.29;100.00;101858.97;10400736;28;20091;-77
2022/09/24 18:29:12;;;;;;;0.00;0.00;;;;;;;12.27;100.00;101852.88;10400339;28;20099;-77
2022/09/24 18:34:14;;;;;;;0.08;0.08;;;;;;;12.18;100.00;101837.03;10456690;28;20045;-78
2022/09/24 18:39:16;;;;;;;0.00;0.00;;;;;;;12.17;100.00;101840.50;10419533;28;20448;-77
2022/09/24 18:44:25;;;;;;;0.00;0.00;;;;;;;12.11;100.00;101833.41;10416327;28;20432;-77
2022/09/24 18:49:27;;;;;;;0.00;0.00;;;;;;;12.12;100.00;101836.84;10430141;28;20049;-78
2022/09/24 18:54:29;;;;;;;0.00;0.00;;;;;;;12.10;100.00;101830.78;10400053;28;20045;-77
2022/09/24 18:59:42;;;;;;;0.00;0.00;;;;;;;12.10;100.00;101830.78;10417181;28;20084;-77
2022/09/24 19:04:44;;;;;;;0.10;0.00;;;;;;;12.08;100.00;101832.41;10411010;28;20077;-78
2022/09/24 19:09:45;;;;;;;1.25;0.90;;;;;;;12.02;100.00;101827.91;10437543;28;20053;-77
2022/09/24 19:21:41;;;;;;;0.00;0.00;;;;;;;11.97;100.00;101822.56;10435346;28;20037;-78
2022/09/24 19:26:43;;;;;;;0.10;0.10;;;;;;;11.90;100.00;101821.47;10421741;28;20077;-78
2022/09/24 19:31:47;;;;;;;2.30;0.65;;;;;;;11.98;100.00;101814.00;10421025;28;20548;-77
2022/09/24 19:36:49;;;;;;;0.00;0.00;;;;;;;11.93;100.00;101820.69;10421379;28;20115;-77
2022/09/24 19:41:51;;;;;;;0.08;0.08;;;;;;;11.95;100.00;101816.44;10428308;28;20055;-77
2022/09/24 19:46:53;;;;;;;0.60;0.10;;;;;;;11.96;100.00;101810.44;10429341;28;20451;-77
2022/09/24 19:51:54;;;;;;;0.10;0.08;;;;;;;11.91;100.00;101815.44;10425870;28;20049;-78
2022/09/24 19:56:57;;;;;;;1.10;0.50;;;;;;;11.89;100.00;101811.06;10430727;28;20124;-77
2022/09/24 20:01:59;;;;;;;0.13;0.13;;;;;;;11.93;100.00;101819.78;10415206;28;20128;-77
2022/09/24 20:07:01;;;;;;;0.90;0.10;;;;;;;11.90;100.00;101818.88;10397366;28;20132;-78
2022/09/24 20:12:06;;;;;;;0.10;0.10;;;;;;;11.91;100.00;101820.63;10416471;28;20100;-76
2022/09/24 20:17:08;;;;;;;0.05;0.00;;;;;;;11.90;100.00;101823.16;10463798;28;20071;-77
2022/09/24 20:22:10;;;;;;;0.13;0.10;;;;;;;11.82;100.00;101824.56;10437735;28;20507;-77
2022/09/24 20:32:37;;;;;;;0.00;0.00;;;;;;;11.84;100.00;101839.28;10423083;28;20140;-77
2022/09/24 20:37:39;;;;;;;0.25;0.13;;;;;;;11.83;100.00;101852.16;10423017;28;20496;-77
2022/09/24 20:42:40;;;;;;;0.30;0.20;;;;;;;11.80;100.00;101863.25;10421352;28;20049;-77
2022/09/24 20:47:42;;;;;;;0.00;0.00;;;;;;;11.74;100.00;101869.06;10421160;28;20069;-77
2022/09/24 20:52:44;;;;;;;0.47;0.45;;;;;;;11.76;100.00;101871.72;10445857;28;20072;-77
2022/09/24 20:57:47;;;;;;;1.02;0.28;;;;;;;11.67;100.00;101882.56;10463054;28;20040;-78
2022/09/24 21:02:49;;;;;;;0.10;0.10;;;;;;;11.67;100.00;101882.56;10445207;28;20147;-77
2022/09/24 21:07:51;;;;;;;3.92;2.05;;;;;;;11.68;100.00;101888.63;10462936;28;20068;-77
2022/09/24 21:12:52;;;;;;;0.00;0.00;;;;;;;11.64;100.00;101897.97;10444989;28;20048;-77
2022/09/24 21:17:54;;;;;;;0.10;0.10;;;;;;;11.60;100.00;101901.25;10403521;28;20128;-77
2022/09/24 21:23:16;;;;;;;0.15;0.15;;;;;;;11.62;100.00;101909.03;10420158;28;20053;-77
2022/09/24 21:28:18;;;;;;;0.35;0.30;;;;;;;11.52;100.00;101907.81;10420144;28;20124;-77
2022/09/24 21:33:19;;;;;;;0.73;0.22;;;;;;;11.49;100.00;101910.28;10403036;28;20057;-77
2022/09/24 21:38:21;;;;;;;1.15;0.38;;;;;;;11.43;100.00;101914.38;10420250;28;20049;-77
2022/09/24 21:43:24;;;;;;;0.47;0.45;;;;;;;11.41;100.00;101925.47;10420169;28;20042;-77
2022/09/24 21:48:32;;;;;;;3.10;0.90;;;;;;;11.37;100.00;101934.78;10403194;28;20049;-78
2022/09/24 21:53:35;;;;;;;0.10;0.10;;;;;;;11.29;100.00;101931.03;10443152;28;20468;-78
2022/09/24 21:58:36;;;;;;;0.60;0.45;;;;;;;11.23;100.00;101941.09;10460885;28;20037;-78
2022/09/24 22:03:38;;;;;;;0.35;0.30;;;;;;;11.28;100.00;101944.75;10433101;28;20052;-77
2022/09/24 22:08:40;;;;;;;0.10;0.10;;;;;;;11.25;100.00;101944.63;10385357;28;20045;-77
2022/09/24 22:13:41;;;;;;;0.88;0.40;;;;;;;11.27;100.00;101950.75;10419095;28;20056;-77
2022/09/24 22:18:43;;;;;;;0.00;0.00;;;;;;;11.29;100.00;101945.63;10417706;28;20137;-77
2022/09/24 22:23:44;;;;;;;0.00;0.00;;;;;;;11.23;100.00;101944.56;10417517;28;20053;-77
2022/09/24 22:28:46;;;;;;;0.00;0.00;;;;;;;11.15;100.00;101929.59;10418527;28;20069;-78
2022/09/24 22:39:08;;;;;;;0.00;0.00;;;;;;;11.15;100.00;101935.66;10416810;28;20077;-76
2022/09/24 22:44:10;;;;;;;0.00;0.00;;;;;;;11.09;100.00;101925.97;10417961;28;20055;-77
2022/09/24 22:49:12;;;;;;;0.00;0.00;;;;;;;11.23;100.00;101923.03;10417861;28;20552;-77
2022/09/24 22:54:14;;;;;;;0.00;0.00;;;;;;;11.10;100.00;101904.50;10416307;28;20045;-77
2022/09/24 22:59:16;;;;;;;0.00;0.00;;;;;;;11.13;100.00;101898.59;10399520;28;20099;-77
2022/09/24 23:04:17;;;;;;;0.25;0.13;;;;;;;11.10;100.00;101894.19;10416110;28;20396;-76
2022/09/24 23:09:19;;;;;;;0.00;0.00;;;;;;;11.01;100.00;101892.97;10399387;28;20049;-76
2022/09/24 23:14:21;;;;;;;0.00;0.00;;;;;;;10.95;100.00;101891.00;10417371;28;20136;-77
2022/09/24 23:19:22;;;;;;;0.00;0.00;;;;;;;10.80;100.00;101883.50;10415258;28;20081;-76
2022/09/24 23:24:24;;;;;;;0.00;0.00;;;;;;;10.66;100.00;101890.69;10417202;28;20068;-76
2022/09/24 23:29:25;;;;;;;0.03;0.03;;;;;;;10.47;100.00;101884.75;10398422;28;20400;-76
2022/09/24 23:34:27;;;;;;;0.13;0.13;;;;;;;10.25;100.00;101884.63;10398924;28;20077;-77
2022/09/24 23:39:29;;;;;;;0.00;0.00;;;;;;;10.09;100.00;101881.38;10415276;28;20045;-76